Resolve — WDD7117 — position and weather

sailwx.info

Track history (hours):
 
Tides and Currents Weather Stations Pressure Air Temp Water Temp Dewpoint Dewpoint Depression Visibility Wind Speed Wind Dir Waves Ship Positions

Resolve

Owner: Intrepid Ship Management, jacksonville, FL. More information available from US FCC via Universal Licensing System and Coast Guard Vessel Documentation Center.

Last reported at 2017-Sep-24 11:53 UTC. Time now 2017-Sep-25 13:40 UTC.
Position N 25°14' W 080°06'.

Length 209 m; draft 6.8 m.

Type: Towing. MMSI: 367336000.

Date/timePositionNaut miles runAvg speedWind from/ knotsBaromVisibWave heightAir tempDewpointWater temp
2017-Sep-24 11:53N 25°14' W 080°06'3 7.3
2017-Sep-24 11:30N 25°17' W 080°04'4 7.9
2017-Sep-24 10:57N 25°21' W 080°02'4 8.4
2017-Sep-24 10:30N 25°24' W 080°02'4 8.1
2017-Sep-24 10:00N 25°29' W 080°02'4 8.1
2017-Sep-24 09:30N 25°33' W 080°01'4 8.0
2017-Sep-24 09:01N 25°37' W 080°01'4 8.2
2017-Sep-24 08:30N 25°41' W 080°01'4 8.4
2017-Sep-24 08:00N 25°45' W 080°00'5 9.3
2017-Sep-24 07:30N 25°49' W 080°00'5 9.6
2017-Sep-24 07:00N 25°54' W 079°60'4 8.3
2017-Sep-24 06:30N 25°58' W 079°60'4 7.4
2017-Sep-24 06:00N 26°02' W 079°60'4 7.1
2017-Sep-24 05:31N 26°06' W 079°59'4 7.1
2017-Sep-24 05:01N 26°09' W 079°59'4 7.2
2017-Sep-24 04:30N 26°13' W 079°59'4 7.4
2017-Sep-24 04:00N 26°17' W 079°59'4 7.4
2017-Sep-24 03:30N 26°20' W 079°59'4 7.6
2017-Sep-24 03:00N 26°24' W 079°58'4 7.7
2017-Sep-24 02:30N 26°28' W 079°58'4 7.8
2017-Sep-24 02:00N 26°32' W 079°58'16 7.6
2017-Sep-23 23:53N 26°48' W 079°57'3 7.3
2017-Sep-23 23:30N 26°50' W 079°57'4 7.2
2017-Sep-23 23:00N 26°54' W 079°57'4 7.3
2017-Sep-23 22:31N 26°58' W 079°58'4 8.0
2017-Sep-23 22:00N 27°02' W 079°59'  
2017-Sep-18 15:16N 26°34' W 079°51'414.3
2017-Sep-18 15:00N 26°30' W 079°52'713.5
2017-Sep-18 14:30N 26°24' W 079°54'713.3
2017-Sep-18 14:00N 26°17' W 079°55'612.9
2017-Sep-18 13:30N 26°11' W 079°58'510.6
2017-Sep-18 13:00N 26°08' W 080°03'2 3.2
2017-Sep-18 12:30N 26°06' W 080°03'2 3.8
2017-Sep-18 12:00N 26°05' W 080°02'3 5.0
2017-Sep-18 11:30N 26°03' W 080°01'611.7
2017-Sep-18 11:00N 25°57' W 079°59'611.1
2017-Sep-18 10:30N 25°52' W 079°58'612.0
2017-Sep-18 10:00N 25°46' W 079°58'713.4
2017-Sep-18 09:30N 25°39' W 079°59'713.7
2017-Sep-18 09:00N 25°32' W 079°59'713.7
2017-Sep-18 08:30N 25°25' W 079°59'713.4
2017-Sep-18 07:59N 25°18' W 080°00'  
Track history (hours):
 
Tides and Currents Weather Stations Pressure Air Temp Water Temp Dewpoint Dewpoint Depression Visibility Wind Speed Wind Dir Waves Ship Positions

Resolve

Owner: Intrepid Ship Management, jacksonville, FL. More information available from US FCC via Universal Licensing System and Coast Guard Vessel Documentation Center.

Last reported at 2017-Sep-24 11:53 UTC. Time now 2017-Sep-25 13:40 UTC.
Position N 25°14' W 080°06'.

Length 209 m; draft 6.8 m.

Type: Towing. MMSI: 367336000.

Date/timePositionNaut miles runAvg speedWind from/ knotsBaromVisibWave heightAir tempDewpointWater temp
2017-Sep-24 11:53N 25°14' W 080°06'3 7.3
2017-Sep-24 11:30N 25°17' W 080°04'4 7.9
2017-Sep-24 10:57N 25°21' W 080°02'4 8.4
2017-Sep-24 10:30N 25°24' W 080°02'4 8.1
2017-Sep-24 10:00N 25°29' W 080°02'4 8.1
2017-Sep-24 09:30N 25°33' W 080°01'4 8.0
2017-Sep-24 09:01N 25°37' W 080°01'4 8.2
2017-Sep-24 08:30N 25°41' W 080°01'4 8.4
2017-Sep-24 08:00N 25°45' W 080°00'5 9.3
2017-Sep-24 07:30N 25°49' W 080°00'5 9.6
2017-Sep-24 07:00N 25°54' W 079°60'4 8.3
2017-Sep-24 06:30N 25°58' W 079°60'4 7.4
2017-Sep-24 06:00N 26°02' W 079°60'4 7.1
2017-Sep-24 05:31N 26°06' W 079°59'4 7.1
2017-Sep-24 05:01N 26°09' W 079°59'4 7.2
2017-Sep-24 04:30N 26°13' W 079°59'4 7.4
2017-Sep-24 04:00N 26°17' W 079°59'4 7.4
2017-Sep-24 03:30N 26°20' W 079°59'4 7.6
2017-Sep-24 03:00N 26°24' W 079°58'4 7.7
2017-Sep-24 02:30N 26°28' W 079°58'4 7.8
2017-Sep-24 02:00N 26°32' W 079°58'16 7.6
2017-Sep-23 23:53N 26°48' W 079°57'3 7.3
2017-Sep-23 23:30N 26°50' W 079°57'4 7.2
2017-Sep-23 23:00N 26°54' W 079°57'4 7.3
2017-Sep-23 22:31N 26°58' W 079°58'4 8.0
2017-Sep-23 22:00N 27°02' W 079°59'  
2017-Sep-18 15:16N 26°34' W 079°51'414.3
2017-Sep-18 15:00N 26°30' W 079°52'713.5
2017-Sep-18 14:30N 26°24' W 079°54'713.3
2017-Sep-18 14:00N 26°17' W 079°55'612.9
2017-Sep-18 13:30N 26°11' W 079°58'510.6
2017-Sep-18 13:00N 26°08' W 080°03'2 3.2
2017-Sep-18 12:30N 26°06' W 080°03'2 3.8
2017-Sep-18 12:00N 26°05' W 080°02'3 5.0
2017-Sep-18 11:30N 26°03' W 080°01'611.7
2017-Sep-18 11:00N 25°57' W 079°59'611.1
2017-Sep-18 10:30N 25°52' W 079°58'612.0
2017-Sep-18 10:00N 25°46' W 079°58'713.4
2017-Sep-18 09:30N 25°39' W 079°59'713.7
2017-Sep-18 09:00N 25°32' W 079°59'713.7
2017-Sep-18 08:30N 25°25' W 079°59'713.4
2017-Sep-18 07:59N 25°18' W 080°00'  

Dump ship's entire track history